Time;durP1;ratioP1;P1;durP2;ratioP2;P2;SDS_P1;SDS_P2;PMS_P1;PMS_P2;Temp;Humidity;BMP_temperature;BMP_pressure;BME280_temperature;BME280_humidity;BME280_pressure;Samples;Min_cycle;Max_cycle;Signal;HPM_P1;HPM_P2
2022/01/22 00:00:15;;;;;;;6.36;3.50;;;;;;;3.03;89.81;101007.94;2024534;79;20898;-73
2022/01/22 00:03:18;;;;;;;5.57;3.29;;;;;;;3.02;89.81;101006.19;2021301;77;31297;-73
2022/01/22 00:06:21;;;;;;;9.46;3.81;;;;;;;3.02;89.84;101006.19;2026175;80;20295;-73
2022/01/22 00:09:25;;;;;;;6.31;3.05;;;;;;;3.03;89.83;101004.50;2023474;80;20798;-73
2022/01/22 00:15:42;;;;;;;5.85;3.08;;;;;;;2.98;90.00;101006.84;2022216;77;21153;-73
2022/01/22 00:18:45;;;;;;;7.38;3.51;;;;;;;2.98;90.09;101011.09;2028079;79;20306;-73
2022/01/22 00:21:48;;;;;;;6.44;3.63;;;;;;;2.97;90.21;101002.50;2028610;79;20303;-73
2022/01/22 00:24:56;;;;;;;8.21;3.15;;;;;;;2.96;90.18;101002.44;2028551;79;20812;-73
2022/01/22 00:28:00;;;;;;;5.54;3.13;;;;;;;2.98;90.23;101011.97;2027931;79;20379;-73
2022/01/22 00:31:03;;;;;;;8.60;3.85;;;;;;;2.96;90.32;101007.56;2026022;77;24018;-73
2022/01/22 00:34:07;;;;;;;6.72;3.00;;;;;;;2.97;90.28;101007.63;2081971;70;20701;-73
2022/01/22 00:37:10;;;;;;;8.26;3.67;;;;;;;2.97;90.33;101005.06;2017640;80;20382;-73
2022/01/22 00:40:14;;;;;;;7.51;3.66;;;;;;;2.96;90.32;101000.75;2018053;80;20364;-73
2022/01/22 00:43:17;;;;;;;10.50;4.43;;;;;;;2.98;90.23;100995.69;2017898;80;21297;-73
2022/01/22 00:46:21;;;;;;;9.60;3.74;;;;;;;2.99;90.18;100998.34;2016146;77;21753;-73
2022/01/22 00:49:23;;;;;;;6.38;3.86;;;;;;;3.03;90.12;101000.25;2017163;80;20630;-73
2022/01/22 00:52:26;;;;;;;7.43;4.11;;;;;;;3.02;89.91;101005.31;2017263;80;21219;-73
2022/01/22 00:55:29;;;;;;;8.30;4.01;;;;;;;3.03;89.84;101004.50;2017740;80;20397;-73
2022/01/22 00:58:32;;;;;;;7.82;4.21;;;;;;;3.05;89.66;101013.16;2017232;80;20750;-73
2022/01/22 01:01:35;;;;;;;10.04;4.46;;;;;;;3.06;89.65;101011.50;2015243;78;23988;-73
2022/01/22 01:04:38;;;;;;;7.32;4.94;;;;;;;3.05;89.54;101013.16;2016240;80;20459;-73
2022/01/22 01:07:41;;;;;;;7.00;4.32;;;;;;;3.07;89.61;101011.56;2016075;80;20997;-73
2022/01/22 01:10:45;;;;;;;7.90;4.32;;;;;;;3.08;89.60;101002.19;2017069;80;20354;-73
2022/01/22 01:13:51;;;;;;;7.76;4.70;;;;;;;3.08;89.67;101007.31;2017626;80;20325;-73
2022/01/22 01:36:35;;;;;;;8.09;4.51;;;;;;;3.10;89.41;100980.94;2017914;80;20707;-73
2022/01/22 01:39:39;;;;;;;6.61;4.57;;;;;;;3.08;89.28;100979.09;2018333;80;21193;-73
2022/01/22 01:45:44;;;;;;;7.55;4.28;;;;;;;3.07;89.32;100995.31;2015738;78;23323;-73
2022/01/22 01:48:47;;;;;;;9.64;4.81;;;;;;;3.07;89.33;100990.16;2018298;80;20337;-72
2022/01/22 01:51:52;;;;;;;8.68;4.34;;;;;;;3.06;89.21;100991.84;2017653;80;20410;-72
2022/01/22 01:55:08;;;;;;;5.86;4.00;;;;;;;3.07;89.22;101001.31;2017661;80;20448;-73
2022/01/22 01:58:10;;;;;;;8.93;4.30;;;;;;;3.05;89.09;100997.75;2016839;80;20373;-73
2022/01/22 02:01:13;;;;;;;10.74;4.64;;;;;;;3.04;89.04;101004.56;2016767;77;20566;-74
2022/01/22 02:04:16;;;;;;;9.43;4.80;;;;;;;3.03;89.15;101007.06;2016801;80;20431;-73
2022/01/22 02:07:19;;;;;;;10.39;4.74;;;;;;;3.02;89.18;101007.88;2017643;80;20394;-73
2022/01/22 02:10:26;;;;;;;9.43;4.60;;;;;;;3.01;89.18;101006.09;2017614;80;21042;-73
2022/01/22 02:13:48;;;;;;;8.63;4.22;;;;;;;3.03;89.17;101004.50;2018083;80;20317;-73
2022/01/22 02:23:42;;;;;;;12.84;4.95;;;;;;;3.00;89.34;100973.56;2017871;80;20394;-73
2022/01/22 02:26:47;;;;;;;6.60;4.29;;;;;;;2.98;89.25;100972.59;2016822;80;20905;-73
2022/01/22 02:29:49;;;;;;;6.71;4.41;;;;;;;2.97;89.15;100981.97;2017858;80;20349;-73
2022/01/22 02:36:24;;;;;;;9.76;4.60;;;;;;;2.96;89.29;100981.91;2016623;80;20837;-73
2022/01/22 02:40:32;;;;;;;13.57;5.14;;;;;;;2.98;89.38;100988.00;2016126;80;20793;-73
2022/01/22 02:42:59;;;;;;;10.35;3.71;;;;;;;2.97;89.42;100987.13;2015509;80;20354;-73
2022/01/22 02:46:02;;;;;;;6.94;3.89;;;;;;;2.95;89.43;100985.28;2014376;80;20435;-73
2022/01/22 02:49:05;;;;;;;8.38;4.03;;;;;;;2.96;89.32;100974.22;2015101;80;20486;-73
2022/01/22 02:52:09;;;;;;;6.86;3.90;;;;;;;2.94;89.05;100971.56;2016104;80;20336;-73
2022/01/22 02:55:12;;;;;;;6.40;3.19;;;;;;;2.93;88.99;100962.13;2016420;80;20389;-72
2022/01/22 02:58:16;;;;;;;8.00;3.19;;;;;;;2.94;88.84;100963.00;2015352;80;20353;-73
2022/01/22 03:01:20;;;;;;;5.54;2.56;;;;;;;2.95;88.30;100963.06;2015238;77;22293;-73
2022/01/22 03:04:22;;;;;;;5.28;2.45;;;;;;;2.94;87.94;100963.00;2017815;80;20333;-73
2022/01/22 03:07:25;;;;;;;10.11;2.65;;;;;;;2.93;87.46;100959.53;2017279;80;20301;-73
2022/01/22 03:10:29;;;;;;;6.11;2.71;;;;;;;2.94;87.01;100961.31;2018014;80;20335;-73
2022/01/22 03:16:57;;;;;;;6.97;2.76;;;;;;;2.93;86.41;100953.53;2016219;77;20642;-73
2022/01/22 03:20:17;;;;;;;8.07;2.41;;;;;;;2.92;86.33;100959.47;2017920;80;20340;-73
2022/01/22 03:30:04;;;;;;;4.63;2.17;;;;;;;2.88;86.11;100950.75;2015802;80;20305;-73
2022/01/22 03:33:07;;;;;;;3.24;1.90;;;;;;;2.87;85.80;100954.13;2017452;77;21322;-73
2022/01/22 03:36:11;;;;;;;6.78;1.90;;;;;;;2.88;85.82;100963.56;2017566;80;20764;-72
2022/01/22 03:39:14;;;;;;;6.03;1.91;;;;;;;2.87;85.66;100966.03;2017975;80;20336;-73
2022/01/22 03:42:17;;;;;;;3.76;1.84;;;;;;;2.88;85.47;100960.13;2017253;80;20339;-73
2022/01/22 03:45:22;;;;;;;7.45;2.41;;;;;;;2.90;85.53;100971.34;2016392;80;20440;-73
2022/01/22 03:48:25;;;;;;;8.54;2.05;;;;;;;2.89;85.38;100956.75;2017019;80;20337;-73
2022/01/22 03:51:27;;;;;;;4.99;1.85;;;;;;;2.88;85.43;100961.00;2017499;80;20301;-73
2022/01/22 03:54:30;;;;;;;5.53;2.17;;;;;;;2.89;85.71;100959.31;2017587;80;20317;-73
2022/01/22 03:57:32;;;;;;;6.04;1.95;;;;;;;2.89;85.70;100949.94;2017783;80;20316;-73
2022/01/22 04:00:35;;;;;;;7.01;1.91;;;;;;;2.90;85.54;100956.84;2014574;78;20747;-73
2022/01/22 04:03:42;;;;;;;6.76;2.42;;;;;;;2.90;85.42;100961.97;2016890;80;20451;-72
2022/01/22 04:07:16;;;;;;;6.53;2.09;;;;;;;2.90;85.44;100955.94;2017418;80;20563;-73
2022/01/22 04:10:09;;;;;;;4.74;2.01;;;;;;;2.90;85.43;100951.69;2017395;80;21157;-73
2022/01/22 04:13:15;;;;;;;6.16;2.21;;;;;;;2.91;85.24;100958.59;2017665;80;21248;-73
2022/01/22 04:16:18;;;;;;;3.41;1.92;;;;;;;2.91;85.08;100958.59;2015558;80;20336;-73
2022/01/22 04:26:23;;;;;;;7.25;1.81;;;;;;;2.93;84.83;100963.81;2017302;80;20334;-72
2022/01/22 04:29:27;;;;;;;6.57;1.76;;;;;;;2.94;84.89;100970.69;2017287;80;20401;-73
2022/01/22 04:32:31;;;;;;;5.19;1.88;;;;;;;2.95;84.95;100965.63;2015267;77;22195;-73
2022/01/22 04:35:34;;;;;;;8.01;1.94;;;;;;;2.96;85.16;100971.66;2017427;80;20875;-73
2022/01/22 04:38:37;;;;;;;6.55;1.85;;;;;;;2.97;84.91;100965.72;2016850;80;20872;-73
2022/01/22 04:41:39;;;;;;;6.28;2.03;;;;;;;2.95;84.34;100960.50;2017321;80;20689;-73
2022/01/22 04:44:57;;;;;;;5.72;1.48;;;;;;;2.97;84.27;100965.72;2017177;80;20442;-73
2022/01/22 04:57:57;;;;;;;4.03;1.17;;;;;;;2.99;84.10;100974.38;2017477;80;20349;-72
2022/01/22 05:00:59;;;;;;;4.56;1.45;;;;;;;2.97;84.35;100964.03;2016168;77;22269;-73
2022/01/22 05:04:02;;;;;;;3.39;1.33;;;;;;;2.99;84.13;100964.09;2017699;80;20337;-73
2022/01/22 05:07:05;;;;;;;6.97;1.56;;;;;;;3.00;84.07;100963.28;2017546;80;20348;-73
2022/01/22 05:10:09;;;;;;;7.01;1.96;;;;;;;3.00;83.99;100951.34;2018367;80;20357;-73
2022/01/22 05:13:11;;;;;;;5.85;1.44;;;;;;;3.01;83.90;100958.25;2018008;80;20367;-72
2022/01/22 05:16:15;;;;;;;5.68;1.74;;;;;;;3.03;83.76;100971.16;2016118;77;20950;-73
2022/01/22 05:19:28;;;;;;;5.06;1.15;;;;;;;3.03;84.08;100973.72;2017712;80;20352;-73
2022/01/22 05:23:21;;;;;;;4.76;1.80;;;;;;;3.03;84.46;100978.84;2017500;80;20334;-73
2022/01/22 05:25:58;;;;;;;5.47;1.48;;;;;;;3.00;84.61;100978.69;2016840;80;20355;-73
2022/01/22 05:32:30;;;;;;;3.92;1.48;;;;;;;2.99;84.63;100980.38;2016127;78;23160;-73
2022/01/22 05:38:54;;;;;;;8.81;1.56;;;;;;;2.98;84.94;100977.72;2017925;80;20449;-73
2022/01/22 05:41:58;;;;;;;6.30;2.08;;;;;;;2.96;85.12;100984.47;2017760;80;20824;-73
2022/01/22 05:45:03;;;;;;;7.01;2.22;;;;;;;2.96;85.21;100987.91;2016930;80;20797;-73
2022/01/22 05:48:06;;;;;;;9.73;3.13;;;;;;;2.99;85.05;100989.75;2012322;80;20786;-73
2022/01/22 05:51:09;;;;;;;6.05;2.47;;;;;;;3.00;85.09;100982.13;2011953;80;20443;-73
2022/01/22 06:00:35;;;;;;;5.97;2.46;;;;;;;2.97;85.01;100984.56;2011564;80;20489;-73
2022/01/22 06:03:38;;;;;;;9.81;2.44;;;;;;;2.99;85.00;100985.50;2017672;80;20892;-73
2022/01/22 06:06:41;;;;;;;7.35;3.24;;;;;;;3.01;85.13;100988.16;2018048;80;20313;-73
2022/01/22 06:09:55;;;;;;;10.69;2.84;;;;;;;3.00;85.06;100982.13;2017911;80;21590;-73
2022/01/22 06:13:10;;;;;;;9.74;2.90;;;;;;;3.02;85.15;100988.22;2017984;80;20698;-73
2022/01/22 06:16:15;;;;;;;10.90;3.38;;;;;;;3.03;85.11;100987.41;2015842;78;22484;-73
2022/01/22 06:19:18;;;;;;;9.06;2.80;;;;;;;3.03;84.97;100995.13;2017550;80;21194;-73
2022/01/22 06:22:20;;;;;;;9.59;3.06;;;;;;;3.04;84.95;100996.88;2017388;80;20363;-73
2022/01/22 06:25:23;;;;;;;8.90;3.20;;;;;;;3.04;84.71;100996.88;2017484;80;20378;-73
2022/01/22 06:28:27;;;;;;;17.63;3.72;;;;;;;3.04;84.71;100996.00;2017709;80;20374;-73
2022/01/22 06:31:30;;;;;;;7.76;2.75;;;;;;;3.03;84.82;101000.25;2014904;77;21893;-73
2022/01/22 06:34:32;;;;;;;9.71;3.05;;;;;;;3.04;84.75;101011.38;2017132;80;20429;-73
2022/01/22 06:37:35;;;;;;;9.10;2.85;;;;;;;3.04;84.93;101011.38;2018417;80;20309;-73
2022/01/22 06:43:41;;;;;;;7.04;2.70;;;;;;;3.04;84.96;101007.13;2017716;80;20327;-73
2022/01/22 06:46:45;;;;;;;7.10;2.72;;;;;;;3.04;85.01;101009.72;2015571;80;21336;-73
2022/01/22 06:49:48;;;;;;;6.95;2.71;;;;;;;3.06;85.23;101009.81;2017070;80;21049;-73
2022/01/22 06:52:58;;;;;;;6.49;2.66;;;;;;;3.04;85.28;101017.41;2017531;80;20336;-72
2022/01/22 06:56:02;;;;;;;8.64;2.91;;;;;;;3.04;85.26;101014.84;2017369;80;20356;-73
2022/01/22 06:59:08;;;;;;;9.61;2.85;;;;;;;3.07;85.29;101023.53;2017177;80;20333;-73
2022/01/22 07:02:11;;;;;;;6.93;2.61;;;;;;;3.08;85.30;101030.41;2015372;77;21611;-73
2022/01/22 07:05:13;;;;;;;11.43;2.79;;;;;;;3.09;85.24;101034.75;2016278;80;20331;-73
2022/01/22 07:08:16;;;;;;;8.48;3.00;;;;;;;3.09;85.08;101034.75;2015432;80;20338;-73
2022/01/22 07:11:19;;;;;;;6.97;3.05;;;;;;;3.10;84.99;101045.09;2017295;80;20427;-73
2022/01/22 07:14:22;;;;;;;7.00;3.06;;;;;;;3.10;84.96;101039.06;2017502;80;20345;-73
2022/01/22 07:17:25;;;;;;;9.46;2.80;;;;;;;3.10;85.13;101039.97;2016147;77;21542;-73
2022/01/22 07:20:30;;;;;;;9.89;3.41;;;;;;;3.08;85.21;101039.00;2016938;80;20309;-73
2022/01/22 07:26:38;;;;;;;9.00;3.53;;;;;;;3.10;85.35;101039.06;2016716;80;21278;-73
2022/01/22 07:29:43;;;;;;;7.11;3.42;;;;;;;3.10;85.27;101036.50;2017179;80;20758;-73
2022/01/22 07:32:45;;;;;;;10.16;3.19;;;;;;;3.08;85.42;101041.56;2014679;77;20340;-73
2022/01/22 07:35:48;;;;;;;7.13;3.36;;;;;;;3.09;85.56;101042.44;2015457;80;20380;-73
2022/01/22 07:38:51;;;;;;;13.05;3.74;;;;;;;3.11;85.67;101046.84;2014700;80;20360;-73
2022/01/22 07:41:53;;;;;;;12.95;3.96;;;;;;;3.11;85.76;101043.41;2013997;80;20313;-72
2022/01/22 07:44:56;;;;;;;13.91;3.95;;;;;;;3.13;85.71;101034.97;2015370;80;20363;-72
2022/01/22 07:47:59;;;;;;;10.98;4.21;;;;;;;3.14;85.62;101034.16;2013259;77;21955;-72
2022/01/22 07:51:01;;;;;;;10.90;3.66;;;;;;;3.15;85.58;101033.38;2015247;80;20885;-73
2022/01/22 07:54:04;;;;;;;8.41;3.67;;;;;;;3.17;85.54;101033.44;2014772;80;20327;-73
2022/01/22 07:57:06;;;;;;;8.63;3.42;;;;;;;3.21;85.56;101043.06;2015625;80;20365;-73
2022/01/22 08:00:11;;;;;;;12.75;4.05;;;;;;;3.21;85.60;101040.50;2013511;80;20301;-73
2022/01/22 08:03:14;;;;;;;9.11;3.36;;;;;;;3.23;85.61;101042.38;2014652;77;21875;-73
2022/01/22 08:06:16;;;;;;;11.31;3.79;;;;;;;3.27;85.56;101046.84;2014677;80;20792;-74
2022/01/22 08:09:20;;;;;;;9.80;3.40;;;;;;;3.30;85.59;101054.69;2014474;80;20337;-73
2022/01/22 08:12:22;;;;;;;13.31;3.69;;;;;;;3.34;85.52;101053.16;2014677;80;20309;-73
2022/01/22 08:15:25;;;;;;;9.96;4.01;;;;;;;3.37;85.33;101061.00;2012647;77;21859;-72
2022/01/22 08:18:28;;;;;;;9.54;4.47;;;;;;;3.39;85.27;101048.25;2015537;80;20962;-73
2022/01/22 08:21:32;;;;;;;12.06;4.53;;;;;;;3.42;85.27;101054.44;2013907;80;20444;-73
2022/01/22 08:24:34;;;;;;;8.79;3.89;;;;;;;3.44;85.02;101057.09;2015436;80;20359;-74
2022/01/22 08:31:04;;;;;;;11.57;3.84;;;;;;;3.48;85.03;101061.56;2014069;78;22326;-73
2022/01/22 08:37:28;;;;;;;10.94;4.29;;;;;;;3.49;84.98;101064.22;2016226;80;20324;-73
2022/01/22 08:40:30;;;;;;;7.32;4.09;;;;;;;3.52;85.02;101071.19;2016852;80;20301;-73
2022/01/22 08:43:33;;;;;;;10.64;3.99;;;;;;;3.51;84.82;101075.44;2016143;80;20339;-73
2022/01/22 08:46:37;;;;;;;10.19;3.91;;;;;;;3.54;84.89;101077.28;2016537;77;26980;-78
2022/01/22 08:49:40;;;;;;;8.59;4.45;;;;;;;3.55;84.82;101077.34;2017819;80;20351;-73
2022/01/22 08:52:42;;;;;;;13.61;4.19;;;;;;;3.57;84.76;101077.44;2016966;80;20378;-73
2022/01/22 08:55:45;;;;;;;8.40;3.81;;;;;;;3.59;84.80;101074.16;2016337;80;20320;-74
2022/01/22 08:58:48;;;;;;;9.51;3.78;;;;;;;3.66;84.75;101074.47;2015464;80;20423;-73
2022/01/22 09:01:52;;;;;;;9.44;3.76;;;;;;;3.70;84.58;101068.66;2014769;78;24875;-74
2022/01/22 09:04:55;;;;;;;9.40;3.70;;;;;;;3.77;84.46;101071.63;2016110;80;21369;-74
2022/01/22 09:07:58;;;;;;;10.89;3.84;;;;;;;3.87;84.36;101072.94;2017261;80;20325;-74
2022/01/22 09:11:01;;;;;;;12.40;4.04;;;;;;;3.92;83.97;101072.38;2014582;80;20365;-74
2022/01/22 09:14:07;;;;;;;11.00;4.40;;;;;;;3.98;83.73;101078.63;2015771;80;20345;-74
2022/01/22 09:17:10;;;;;;;9.82;3.80;;;;;;;4.02;83.53;101086.56;2014520;77;20448;-74
2022/01/22 09:20:29;;;;;;;8.61;4.00;;;;;;;4.04;83.05;101082.38;2015960;80;20769;-74
2022/01/22 09:23:33;;;;;;;13.35;3.86;;;;;;;4.06;83.07;101082.44;2016594;80;20325;-75
2022/01/22 09:26:37;;;;;;;7.07;3.66;;;;;;;4.11;83.13;101078.41;2017014;80;20183;-75
2022/01/22 09:29:39;;;;;;;9.69;4.07;;;;;;;4.14;82.80;101078.56;2016605;80;20326;-75
2022/01/22 09:32:42;;;;;;;7.43;3.44;;;;;;;4.13;82.76;101081.91;2014141;78;22609;-75
2022/01/22 09:35:45;;;;;;;7.29;3.70;;;;;;;4.15;82.76;101081.22;2016210;80;20408;-74
2022/01/22 09:38:48;;;;;;;10.40;3.67;;;;;;;4.17;82.58;101084.75;2016229;80;20457;-74
2022/01/22 09:41:50;;;;;;;6.80;3.33;;;;;;;4.17;82.38;101094.13;2016465;80;20294;-74
2022/01/22 09:45:09;;;;;;;8.75;3.96;;;;;;;4.25;82.53;101097.94;2014756;80;21013;-74
2022/01/22 09:48:12;;;;;;;7.78;2.97;;;;;;;4.34;82.28;101093.25;2015808;77;21188;-74
2022/01/22 09:51:15;;;;;;;9.16;3.56;;;;;;;4.41;81.89;101097.00;2016424;80;20317;-74
2022/01/22 09:54:18;;;;;;;7.31;3.61;;;;;;;4.51;81.96;101091.50;2016053;80;20377;-74
2022/01/22 09:57:21;;;;;;;7.22;3.45;;;;;;;4.59;81.65;101086.69;2016288;80;20373;-74
2022/01/22 10:00:25;;;;;;;5.31;3.14;;;;;;;4.65;81.59;101089.53;2014330;77;24639;-74
2022/01/22 10:03:37;;;;;;;6.30;3.49;;;;;;;4.71;81.54;101095.00;2016847;80;20313;-72
2022/01/22 10:06:49;;;;;;;6.28;3.39;;;;;;;4.78;81.54;101092.75;2016438;80;21265;-74
2022/01/22 10:09:57;;;;;;;5.25;3.31;;;;;;;4.85;80.78;101101.66;2015756;80;20301;-74
2022/01/22 10:12:59;;;;;;;7.13;4.05;;;;;;;4.82;80.11;101102.38;2016798;80;20325;-74
2022/01/22 10:16:30;;;;;;;5.30;3.36;;;;;;;4.89;80.25;101090.69;2013430;77;23495;-74
2022/01/22 10:19:33;;;;;;;5.93;3.11;;;;;;;5.03;80.50;101088.75;2016986;80;20349;-74
2022/01/22 10:22:43;;;;;;;7.34;3.85;;;;;;;5.12;80.05;101089.16;2016551;80;20503;-74
2022/01/22 10:25:54;;;;;;;4.54;3.29;;;;;;;5.25;80.21;101083.75;2016557;80;20400;-73
2022/01/22 10:29:01;;;;;;;5.85;3.44;;;;;;;5.30;79.81;101081.34;2015765;80;20301;-74
2022/01/22 10:32:04;;;;;;;6.78;4.04;;;;;;;5.36;79.32;101073.88;2014382;78;20357;-75
2022/01/22 10:35:19;;;;;;;7.09;3.94;;;;;;;5.38;79.32;101074.84;2016318;80;20321;-74
2022/01/22 10:38:47;;;;;;;9.38;3.78;;;;;;;5.39;78.87;101077.50;2016268;80;20903;-74
2022/01/22 10:41:50;;;;;;;6.03;3.53;;;;;;;5.43;78.97;101084.53;2017003;80;21174;-74
2022/01/22 10:44:59;;;;;;;5.39;3.47;;;;;;;5.45;78.76;101087.19;2019395;80;20586;-74
2022/01/22 10:48:14;;;;;;;;;;;;;;;5.46;78.80;101083.78;2017242;77;21640;-74
2022/01/22 10:51:18;;;;;;;6.31;3.65;;;;;;;5.45;78.79;101085.50;2016107;80;20194;-74
2022/01/22 10:54:24;;;;;;;5.39;3.78;;;;;;;5.51;78.75;101081.41;2016222;80;20449;-74
2022/01/22 10:57:27;;;;;;;5.35;4.24;;;;;;;5.58;78.39;101086.03;2016429;80;20374;-74
2022/01/22 11:00:29;;;;;;;7.82;4.30;;;;;;;5.65;78.50;101080.31;2014314;78;27981;-74
2022/01/22 11:03:32;;;;;;;6.44;3.66;;;;;;;5.73;78.29;101077.22;2016211;80;20809;-74
2022/01/22 11:06:37;;;;;;;7.38;4.20;;;;;;;5.72;77.75;101087.47;2019779;80;20346;-74
2022/01/22 11:09:39;;;;;;;7.70;4.09;;;;;;;5.72;77.81;101084.88;2015899;80;20377;-74
2022/01/22 11:12:42;;;;;;;9.61;4.24;;;;;;;5.68;77.67;101088.16;2015619;80;20340;-74
2022/01/22 11:15:48;;;;;;;5.80;4.03;;;;;;;5.66;77.50;101085.53;2014003;80;22869;-74
2022/01/22 11:18:53;;;;;;;7.79;4.21;;;;;;;5.71;77.77;101085.69;2016171;80;20884;-74
2022/01/22 11:21:57;;;;;;;6.20;3.71;;;;;;;5.67;77.49;101082.13;2016128;80;20437;-74
2022/01/22 11:25:00;;;;;;;7.89;4.13;;;;;;;5.63;77.61;101087.09;2016771;80;20383;-74
2022/01/22 11:28:04;;;;;;;8.24;3.59;;;;;;;5.67;77.89;101088.97;2016283;80;20806;-74
2022/01/22 11:31:09;;;;;;;10.26;4.56;;;;;;;5.67;77.32;101087.28;2014330;78;21272;-74
2022/01/22 11:34:17;;;;;;;5.36;3.54;;;;;;;5.71;77.68;101089.16;2016651;80;20317;-74
2022/01/22 11:37:43;;;;;;;6.49;3.97;;;;;;;5.72;77.38;101078.03;2015989;80;20779;-74
2022/01/22 11:41:11;;;;;;;7.38;4.06;;;;;;;5.73;77.25;101082.38;2015479;80;20208;-74
2022/01/22 11:44:24;;;;;;;6.97;3.42;;;;;;;5.74;77.30;101075.53;2014006;80;20910;-74
2022/01/22 11:47:27;;;;;;;5.29;3.88;;;;;;;5.75;77.16;101087.63;2014015;78;21567;-74
2022/01/22 11:50:30;;;;;;;6.26;4.25;;;;;;;5.79;77.47;101079.19;2015998;80;20414;-73
2022/01/22 11:53:37;;;;;;;12.13;3.94;;;;;;;5.79;77.54;101078.31;2016368;80;20369;-74
2022/01/22 11:56:47;;;;;;;6.04;4.28;;;;;;;5.74;77.11;101075.53;2015742;80;20324;-73
2022/01/22 12:00:15;;;;;;;7.49;4.16;;;;;;;5.76;77.31;101076.50;2014909;80;20347;-74
2022/01/22 12:03:19;;;;;;;9.18;4.16;;;;;;;5.74;77.24;101070.38;2010080;78;20552;-74
2022/01/22 12:07:00;;;;;;;9.30;4.31;;;;;;;5.71;77.38;101068.53;2010086;80;20204;-74
2022/01/22 12:10:33;;;;;;;7.74;4.07;;;;;;;5.71;77.20;101065.97;2010598;80;20380;-74
2022/01/22 12:17:02;;;;;;;7.35;3.95;;;;;;;5.70;76.99;101063.31;2012514;77;22167;-73
2022/01/22 12:20:18;;;;;;;3.58;2.84;;;;;;;5.78;77.81;101064.53;2015520;80;20898;-74
2022/01/22 12:23:31;;;;;;;7.21;3.51;;;;;;;5.81;77.23;101064.66;2015505;80;20174;-74
2022/01/22 12:26:46;;;;;;;6.94;3.51;;;;;;;5.82;77.16;101066.44;2015495;80;20294;-74
2022/01/22 12:29:59;;;;;;;4.69;2.71;;;;;;;5.83;77.14;101063.03;2015195;80;20386;-73
2022/01/22 12:33:06;;;;;;;5.25;2.45;;;;;;;5.81;76.84;101068.94;2015298;77;21200;-74
2022/01/22 12:36:18;;;;;;;2.91;1.94;;;;;;;5.83;76.88;101064.72;2014748;80;21102;-74
2022/01/22 12:39:28;;;;;;;1.94;1.58;;;;;;;5.86;77.04;101059.69;2015893;80;20388;-74
2022/01/22 12:42:54;;;;;;;1.81;1.44;;;;;;;5.88;76.44;101063.22;2015044;80;20320;-73
2022/01/22 12:46:03;;;;;;;1.83;1.31;;;;;;;5.89;76.12;101058.13;2013883;77;23911;-74
2022/01/22 12:49:08;;;;;;;2.06;1.20;;;;;;;5.89;75.94;101063.28;2016191;80;20321;-74
2022/01/22 12:52:13;;;;;;;1.46;1.31;;;;;;;5.84;75.66;101046.75;2015985;80;20201;-74
2022/01/22 12:55:37;;;;;;;1.84;1.71;;;;;;;5.82;75.49;101050.97;2015861;80;20352;-74
2022/01/22 12:58:41;;;;;;;2.04;1.26;;;;;;;5.82;75.74;101052.66;2016055;80;20340;-74
2022/01/22 13:01:46;;;;;;;1.33;1.09;;;;;;;5.81;75.85;101050.91;2014242;77;21273;-74
2022/01/22 13:04:57;;;;;;;1.64;1.14;;;;;;;5.81;75.96;101049.22;2015616;80;20336;-74
2022/01/22 13:08:02;;;;;;;1.26;1.05;;;;;;;5.82;75.90;101047.50;2016169;80;20321;-74
2022/01/22 13:11:10;;;;;;;1.94;1.24;;;;;;;5.82;75.65;101045.81;2015980;80;20370;-74
2022/01/22 13:14:24;;;;;;;1.96;1.17;;;;;;;5.83;75.58;101047.56;2017065;80;20354;-73
2022/01/22 13:17:29;;;;;;;1.20;1.10;;;;;;;5.83;75.79;101037.25;2015571;77;21332;-74
2022/01/22 13:20:34;;;;;;;1.74;1.17;;;;;;;5.89;75.75;101034.91;2016333;80;20325;-74
2022/01/22 13:23:37;;;;;;;1.66;1.20;;;;;;;5.92;75.64;101032.50;2017148;80;20369;-74
2022/01/22 13:26:44;;;;;;;1.41;1.31;;;;;;;5.95;75.62;101039.50;2016618;80;20317;-74
2022/01/22 13:29:54;;;;;;;2.54;1.14;;;;;;;5.96;75.33;101033.53;2016211;80;20345;-74
2022/01/22 13:33:02;;;;;;;1.66;1.36;;;;;;;5.97;75.82;101028.44;2014684;77;20348;-74
2022/01/22 13:48:58;;;;;;;1.66;1.41;;;;;;;5.91;75.35;101023.00;2016562;80;20798;-74
2022/01/22 13:52:07;;;;;;;2.39;1.40;;;;;;;5.90;75.57;101023.81;2017116;80;20313;-74
2022/01/22 13:55:13;;;;;;;1.60;1.26;;;;;;;5.85;75.78;101020.16;2016738;80;20332;-74
2022/01/22 13:58:20;;;;;;;1.61;1.23;;;;;;;5.84;76.17;101028.72;2017229;80;21744;-74
2022/01/22 14:01:32;;;;;;;1.26;1.16;;;;;;;5.84;75.92;101023.56;2014951;78;20523;-74
2022/01/22 14:04:39;;;;;;;2.08;1.26;;;;;;;5.85;75.85;101025.31;2016029;80;20317;-74
2022/01/22 14:07:46;;;;;;;1.83;1.50;;;;;;;5.82;75.94;101022.59;2016574;80;20346;-74
2022/01/22 14:10:49;;;;;;;1.50;1.40;;;;;;;5.80;76.16;101026.81;2016536;80;20371;-74
2022/01/22 14:14:05;;;;;;;1.73;1.30;;;;;;;5.77;76.22;101021.56;2017761;80;20309;-75
2022/01/22 14:17:10;;;;;;;2.92;1.36;;;;;;;5.77;76.29;101029.28;2015037;80;25073;-76
2022/01/22 14:20:12;;;;;;;9.06;2.04;;;;;;;5.75;76.66;101028.34;2017063;80;20328;-78
2022/01/22 14:23:19;;;;;;;3.38;1.91;;;;;;;5.70;76.38;101028.13;2018211;80;20393;-78
2022/01/22 14:26:33;;;;;;;2.51;1.92;;;;;;;5.71;77.13;101032.47;2017653;80;20759;-77
2022/01/22 14:29:43;;;;;;;2.39;1.84;;;;;;;5.70;77.51;101038.44;2017635;80;20337;-77
2022/01/22 14:32:58;;;;;;;3.19;2.00;;;;;;;5.67;77.22;101051.19;2015537;78;22545;-78
2022/01/22 14:36:03;;;;;;;3.21;1.99;;;;;;;5.64;77.33;101052.78;2019882;80;20858;-78
2022/01/22 14:39:27;;;;;;;3.05;2.25;;;;;;;5.63;77.61;101053.59;2019600;80;20333;-78
2022/01/22 14:46:07;;;;;;;2.75;2.19;;;;;;;5.52;77.67;101049.66;2016509;77;67979;-78
2022/01/22 14:49:10;;;;;;;2.81;2.50;;;;;;;5.51;77.63;101053.06;2019155;80;20468;-78
2022/01/22 14:52:16;;;;;;;2.85;2.53;;;;;;;5.49;77.68;101039.25;2019131;80;20382;-78
2022/01/22 14:55:19;;;;;;;3.90;2.10;;;;;;;5.47;77.79;101041.75;2019976;80;20325;-78
2022/01/22 14:58:21;;;;;;;3.70;2.45;;;;;;;5.43;77.90;101040.75;2018876;80;20333;-78
2022/01/22 15:01:24;;;;;;;3.46;2.51;;;;;;;5.40;78.16;101048.34;2017336;77;23078;-78
2022/01/22 15:04:28;;;;;;;3.00;2.67;;;;;;;5.37;78.12;101045.63;2019446;80;20884;-78
2022/01/22 15:07:30;;;;;;;2.70;2.39;;;;;;;5.35;78.70;101054.09;2019039;80;20425;-78
2022/01/22 15:10:33;;;;;;;4.15;3.05;;;;;;;5.34;78.75;101048.06;2018630;80;20313;-78
2022/01/22 15:13:36;;;;;;;5.34;2.91;;;;;;;5.34;78.79;101053.22;2019265;80;20873;-78
2022/01/22 15:16:49;;;;;;;3.92;3.15;;;;;;;5.36;78.99;101050.72;2017500;78;21911;-78
2022/01/22 15:19:53;;;;;;;5.49;3.67;;;;;;;5.30;79.07;101053.91;2019032;80;20439;-78
2022/01/22 15:22:58;;;;;;;6.31;3.83;;;;;;;5.26;79.04;101053.72;2018943;80;20313;-78
2022/01/22 15:26:00;;;;;;;4.68;3.28;;;;;;;5.22;79.06;101050.13;2019842;80;20349;-78
2022/01/22 15:29:06;;;;;;;5.54;3.56;;;;;;;5.22;79.52;101044.97;2019551;80;20351;-78
2022/01/22 15:32:29;;;;;;;5.50;3.40;;;;;;;5.22;79.61;101050.13;2018286;77;21438;-77
2022/01/22 15:35:32;;;;;;;4.28;3.55;;;;;;;5.23;79.68;101057.03;2019822;80;20339;-78
2022/01/22 15:38:35;;;;;;;6.76;3.45;;;;;;;5.22;79.73;101047.56;2019290;80;20335;-78
2022/01/22 15:41:39;;;;;;;5.26;3.95;;;;;;;5.21;79.68;101044.91;2019001;80;20653;-78
2022/01/22 15:44:42;;;;;;;4.28;3.50;;;;;;;5.20;79.77;101043.13;2018692;80;20348;-78
2022/01/22 15:47:45;;;;;;;4.70;3.84;;;;;;;5.20;80.17;101045.69;2017674;77;24193;-78
2022/01/22 15:50:47;;;;;;;5.56;4.10;;;;;;;5.19;80.21;101054.25;2020855;80;20407;-77
2022/01/22 15:53:55;;;;;;;4.56;3.99;;;;;;;5.16;80.37;101053.28;2020496;80;20329;-77
2022/01/22 15:57:05;;;;;;;4.90;3.30;;;;;;;5.13;80.37;101058.31;2023016;80;20309;-77
2022/01/22 16:00:22;;;;;;;5.15;3.72;;;;;;;5.14;80.45;101061.78;2019063;80;20345;-77
2022/01/22 16:03:25;;;;;;;5.04;3.74;;;;;;;5.09;80.19;101068.41;2020130;77;52854;-78
2022/01/22 16:06:38;;;;;;;6.50;3.17;;;;;;;5.06;80.19;101076.00;2020073;80;21091;-77
2022/01/22 16:09:40;;;;;;;4.94;3.65;;;;;;;5.03;80.14;101078.47;2018496;80;20305;-77
2022/01/22 16:12:54;;;;;;;3.99;3.49;;;;;;;5.02;80.18;101077.53;2019104;80;20360;-78
2022/01/22 16:15:57;;;;;;;4.03;3.55;;;;;;;5.00;80.25;101081.75;2015749;77;22255;-77
2022/01/22 16:19:00;;;;;;;4.46;3.47;;;;;;;5.00;80.45;101078.28;2017641;80;20340;-77
2022/01/22 16:22:04;;;;;;;4.97;3.72;;;;;;;4.99;80.74;101085.13;2016946;80;20382;-77